Time;durP1;ratioP1;P1;durP2;ratioP2;P2;SDS_P1;SDS_P2;PMS_P1;PMS_P2;Temp;Humidity;BMP_temperature;BMP_pressure;BME280_temperature;BME280_humidity;BME280_pressure;Samples;Min_cycle;Max_cycle;Signal;HPM_P1;HPM_P2
2023/01/05 00:01:44;;;;;;;2.60;1.07;;;;;;;0.40;100.00;100649.52;1705088;84;21092;-59
2023/01/05 00:04:11;;;;;;;2.83;1.07;;;;;;;0.39;100.00;100647.89;1704613;84;22063;-62
2023/01/05 00:06:38;;;;;;;2.33;1.10;;;;;;;0.38;100.00;100654.40;1705213;84;22111;-59
2023/01/05 00:09:07;;;;;;;2.42;0.93;;;;;;;0.35;100.00;100646.95;1705347;84;21077;-58
2023/01/05 00:22:51;;;;;;;2.85;1.40;;;;;;;0.30;100.00;100649.81;1704747;84;21483;-59
2023/01/05 00:25:27;;;;;;;3.22;1.50;;;;;;;0.33;100.00;100652.16;1703620;84;21510;-62
2023/01/05 00:27:56;;;;;;;3.15;1.60;;;;;;;0.36;100.00;100645.55;1705199;84;21120;-59
2023/01/05 00:30:29;;;;;;;4.35;2.10;;;;;;;0.36;100.00;100635.28;1704577;84;21305;-59
2023/01/05 00:32:57;;;;;;;12.70;6.08;;;;;;;0.39;100.00;100630.41;1703603;83;20913;-59
2023/01/05 00:35:24;;;;;;;7.33;3.58;;;;;;;0.41;100.00;100620.84;1704250;84;21406;-59
2023/01/05 00:37:51;;;;;;;13.25;4.55;;;;;;;0.42;100.00;100621.23;1705018;84;21060;-58
2023/01/05 00:40:20;;;;;;;4.10;1.95;;;;;;;0.42;100.00;100627.17;1705103;84;21002;-59
2023/01/05 00:42:47;;;;;;;6.72;3.10;;;;;;;0.44;100.00;100625.77;1705444;84;21323;-63
2023/01/05 00:45:17;;;;;;;4.55;2.20;;;;;;;0.43;100.00;100623.67;1704202;84;20967;-60
2023/01/05 00:47:44;;;;;;;3.70;1.72;;;;;;;0.45;100.00;100624.36;1705114;84;21378;-59
2023/01/05 00:50:15;;;;;;;3.00;1.30;;;;;;;0.45;100.00;100615.39;1704892;84;20942;-59
2023/01/05 00:52:43;;;;;;;3.02;1.30;;;;;;;0.45;100.00;100606.87;1704676;83;20966;-63
2023/01/05 00:55:11;;;;;;;2.42;1.15;;;;;;;0.43;100.00;100593.36;1703772;84;21334;-60
2023/01/05 00:57:39;;;;;;;3.90;1.65;;;;;;;0.43;100.00;100588.23;1704670;84;21163;-59
2023/01/05 01:00:09;;;;;;;4.50;1.85;;;;;;;0.41;100.00;100578.06;1704734;84;20990;-59
2023/01/05 01:02:38;;;;;;;4.62;2.20;;;;;;;0.41;100.00;100584.95;1704040;84;20982;-63
2023/01/05 01:05:08;;;;;;;6.28;2.52;;;;;;;0.35;100.00;100581.56;1708709;83;22299;-60
2023/01/05 01:07:36;;;;;;;4.17;2.08;;;;;;;0.31;100.00;100567.32;1710018;83;21860;-59
2023/01/05 01:10:06;;;;;;;3.90;1.92;;;;;;;0.24;100.00;100558.77;1709884;83;21017;-58
2023/01/05 01:12:34;;;;;;;4.33;2.05;;;;;;;0.15;100.00;100560.72;1709786;83;21515;-61
2023/01/05 01:15:01;;;;;;;5.20;2.02;;;;;;;0.02;100.00;100558.64;1709009;83;21017;-60
2023/01/05 01:17:30;;;;;;;3.42;1.92;;;;;;;-0.07;100.00;100558.02;1710211;83;21842;-59
2023/01/05 01:19:58;;;;;;;5.05;1.90;;;;;;;-0.17;100.00;100552.70;1684089;83;21333;-58
2023/01/05 01:22:25;;;;;;;3.50;1.45;;;;;;;-0.25;100.00;100547.30;1710646;83;20961;-63
2023/01/05 01:24:53;;;;;;;3.60;1.85;;;;;;;-0.31;100.00;100546.43;1709446;83;20986;-64
2023/01/05 01:27:20;;;;;;;5.12;2.02;;;;;;;-0.39;100.00;100541.84;1709775;83;21566;-59
2023/01/05 01:29:48;;;;;;;3.83;1.50;;;;;;;-0.47;100.00;100537.71;1710222;83;21475;-59
2023/01/05 01:32:16;;;;;;;5.08;1.82;;;;;;;-0.54;100.00;100543.70;1709942;83;21114;-58
2023/01/05 01:34:44;;;;;;;3.98;1.62;;;;;;;-0.60;100.00;100543.33;1709458;83;20929;-60
2023/01/05 01:37:12;;;;;;;4.30;1.67;;;;;;;-0.65;100.00;100539.77;1709704;83;20980;-59
2023/01/05 01:39:40;;;;;;;3.33;1.57;;;;;;;-0.68;100.00;100537.88;1709727;83;21432;-59
2023/01/05 01:42:13;;;;;;;4.72;2.67;;;;;;;-0.71;100.00;100545.79;1709957;82;21060;-59
2023/01/05 01:44:56;;;;;;;6.15;3.47;;;;;;;-0.70;100.00;100547.42;1709855;83;21344;-61
2023/01/05 01:47:45;;;;;;;5.62;2.80;;;;;;;-0.71;100.00;100545.33;1708922;83;21087;-59
2023/01/05 01:50:29;;;;;;;4.92;2.33;;;;;;;-0.69;100.00;100530.66;1706884;83;21078;-63
2023/01/05 01:53:04;;;;;;;3.98;2.05;;;;;;;-0.67;100.00;100521.63;1710189;83;20946;-59
2023/01/05 01:55:33;;;;;;;4.40;2.05;;;;;;;-0.66;100.00;100524.06;1709608;83;21004;-64
2023/01/05 01:58:02;;;;;;;4.50;2.27;;;;;;;-0.63;100.00;100518.74;1709492;83;21314;-61
2023/01/05 02:00:30;;;;;;;3.50;1.72;;;;;;;-0.61;100.00;100510.94;1710416;83;21343;-59
2023/01/05 02:02:58;;;;;;;5.30;2.10;;;;;;;-0.59;100.00;100510.39;1710015;83;21128;-61
2023/01/05 02:05:28;;;;;;;4.87;2.42;;;;;;;-0.57;100.00;100502.13;1705164;83;21002;-62
2023/01/05 02:07:56;;;;;;;4.05;2.02;;;;;;;-0.56;100.00;100493.55;1704668;84;21081;-63
2023/01/05 02:11:03;;;;;;;4.10;1.92;;;;;;;-0.54;100.00;100489.12;1704209;84;22279;-59
2023/01/05 02:14:06;;;;;;;5.67;2.15;;;;;;;-0.54;100.00;100487.38;1704189;84;21390;-61
2023/01/05 02:17:22;;;;;;;3.60;1.50;;;;;;;-0.55;100.00;100499.83;1703874;83;20993;-60
2023/01/05 02:20:31;;;;;;;3.47;1.77;;;;;;;-0.56;100.00;100492.27;1703986;84;21510;-60
2023/01/05 02:23:18;;;;;;;4.25;1.87;;;;;;;-0.59;100.00;100474.55;1704922;84;20890;-59
2023/01/05 02:26:12;;;;;;;4.25;1.98;;;;;;;-0.62;100.00;100479.88;1703521;83;21763;-60
2023/01/05 02:29:21;;;;;;;4.87;2.20;;;;;;;-0.64;100.00;100480.45;1702698;83;21004;-60
2023/01/05 02:31:57;;;;;;;3.80;1.80;;;;;;;-0.68;100.00;100474.73;1703827;83;21014;-60
2023/01/05 02:34:52;;;;;;;4.10;1.98;;;;;;;-0.71;100.00;100479.23;1685758;84;21316;-63
2023/01/05 02:37:27;;;;;;;4.15;1.80;;;;;;;-0.75;100.00;100488.86;1690603;84;20990;-59
2023/01/05 02:40:09;;;;;;;4.72;1.90;;;;;;;-0.81;100.00;100482.41;1703771;84;21242;-62
2023/01/05 02:42:37;;;;;;;3.95;1.75;;;;;;;-0.85;100.00;100491.69;1704751;84;20985;-59
2023/01/05 02:45:07;;;;;;;3.87;2.00;;;;;;;-0.90;100.00;100485.60;1704678;84;20993;-60
2023/01/05 02:47:38;;;;;;;4.50;2.05;;;;;;;-0.95;100.00;100488.09;1704358;84;21009;-59
2023/01/05 02:50:15;;;;;;;4.20;1.80;;;;;;;-1.01;100.00;100488.06;1704640;84;21533;-59
2023/01/05 02:52:53;;;;;;;3.17;1.62;;;;;;;-1.06;100.00;100491.37;1704996;84;21250;-59
2023/01/05 02:55:25;;;;;;;3.40;1.50;;;;;;;-1.09;100.00;100494.16;1704195;84;20977;-59
2023/01/05 02:58:03;;;;;;;3.65;1.50;;;;;;;-1.12;100.00;100495.17;1705428;83;21029;-59
2023/01/05 03:00:34;;;;;;;3.15;1.47;;;;;;;-1.16;100.00;100483.97;1705560;84;21096;-59
2023/01/05 03:03:11;;;;;;;4.08;1.60;;;;;;;-1.18;100.00;100481.96;1685732;84;21099;-59
2023/01/05 03:05:45;;;;;;;3.25;1.55;;;;;;;-1.22;100.00;100484.72;1705483;83;21242;-59
2023/01/05 03:08:20;;;;;;;3.95;1.95;;;;;;;-1.27;100.00;100481.66;1704511;83;21020;-59
2023/01/05 03:13:45;;;;;;;3.02;1.40;;;;;;;-1.36;100.00;100479.72;1667664;83;21017;-61
2023/01/05 03:16:19;;;;;;;4.13;1.50;;;;;;;-1.42;100.00;100470.34;1704055;83;21503;-59
2023/01/05 03:35:33;;;;;;;4.30;1.67;;;;;;;-1.67;100.00;100452.76;1688300;84;21100;-59
2023/01/05 03:38:22;;;;;;;3.70;1.50;;;;;;;-1.68;100.00;100443.47;1687622;84;20997;-60
2023/01/05 03:40:51;;;;;;;4.22;2.00;;;;;;;-1.68;100.00;100443.92;1703138;84;21303;-59
2023/01/05 03:43:18;;;;;;;3.27;1.72;;;;;;;-1.68;100.00;100434.98;1704931;84;21017;-63
2023/01/05 03:45:55;;;;;;;2.87;1.45;;;;;;;-1.66;100.00;100435.72;1704436;84;21244;-60
2023/01/05 03:48:25;;;;;;;3.98;1.67;;;;;;;-1.65;100.00;100432.23;1704764;84;21068;-59
2023/01/05 03:50:52;;;;;;;3.25;1.57;;;;;;;-1.63;100.00;100432.94;1704771;84;21160;-59
2023/01/05 03:53:19;;;;;;;4.12;1.90;;;;;;;-1.62;100.00;100433.31;1704552;84;21022;-63
2023/01/05 03:55:48;;;;;;;4.42;1.80;;;;;;;-1.61;100.00;100433.20;1704198;84;21572;-59
2023/01/05 03:58:16;;;;;;;4.53;2.05;;;;;;;-1.59;100.00;100434.37;1704098;84;21345;-60
2023/01/05 04:00:47;;;;;;;4.05;2.10;;;;;;;-1.59;100.00;100426.70;1704712;84;22062;-59
2023/01/05 04:03:14;;;;;;;5.40;2.42;;;;;;;-1.61;100.00;100424.72;1704519;84;21002;-59
2023/01/05 04:05:43;;;;;;;4.35;1.60;;;;;;;-1.65;100.00;100417.71;1706018;83;20962;-62
2023/01/05 04:08:11;;;;;;;4.85;2.50;;;;;;;-1.68;100.00;100419.65;1707371;83;21138;-63
2023/01/05 04:10:40;;;;;;;4.55;2.20;;;;;;;-1.72;100.00;100412.17;1707467;83;20941;-61
2023/01/05 04:13:08;;;;;;;5.10;2.35;;;;;;;-1.74;100.00;100416.59;1708010;83;21057;-59
2023/01/05 04:15:35;;;;;;;11.55;5.37;;;;;;;-1.75;100.00;100402.15;1707149;83;20989;-60
2023/01/05 04:18:05;;;;;;;7.42;3.00;;;;;;;-1.74;100.00;100402.53;1707263;83;21438;-61
2023/01/05 04:20:34;;;;;;;7.08;3.67;;;;;;;-1.71;100.00;100406.14;1707314;83;21084;-58
2023/01/05 04:23:01;;;;;;;7.70;4.05;;;;;;;-1.71;100.00;100402.30;1707551;83;21274;-59
2023/01/05 04:25:30;;;;;;;8.30;4.03;;;;;;;-1.71;100.00;100397.66;1706967;83;21113;-63
2023/01/05 04:27:59;;;;;;;8.80;4.08;;;;;;;-1.72;100.00;100387.09;1706266;83;21008;-58
2023/01/05 04:30:27;;;;;;;8.55;3.87;;;;;;;-1.74;100.00;100379.99;1707126;83;21411;-60
2023/01/05 04:32:55;;;;;;;6.45;3.55;;;;;;;-1.75;100.00;100382.98;1707488;83;21111;-58
2023/01/05 04:35:22;;;;;;;6.53;3.42;;;;;;;-1.78;100.00;100381.94;1707151;83;22647;-60
2023/01/05 04:37:51;;;;;;;4.95;2.70;;;;;;;-1.79;100.00;100371.33;1707275;83;21410;-60
2023/01/05 04:40:18;;;;;;;6.85;3.55;;;;;;;-1.81;100.00;100369.34;1707352;83;20970;-59
2023/01/05 04:42:47;;;;;;;5.37;2.90;;;;;;;-1.79;100.00;100365.41;1707213;83;20942;-61
2023/01/05 04:45:15;;;;;;;4.67;2.50;;;;;;;-1.78;100.00;100366.60;1707341;83;21010;-61
2023/01/05 04:47:43;;;;;;;5.17;2.00;;;;;;;-1.77;100.00;100359.28;1681148;83;22110;-60
2023/01/05 04:50:11;;;;;;;5.42;2.33;;;;;;;-1.74;100.00;100363.38;1706961;83;21011;-60
2023/01/05 04:52:38;;;;;;;5.90;2.02;;;;;;;-1.68;100.00;100355.75;1707510;83;21429;-60
2023/01/05 04:55:08;;;;;;;4.45;2.05;;;;;;;-1.64;100.00;100356.72;1707271;83;20960;-62
2023/01/05 04:57:35;;;;;;;3.77;1.72;;;;;;;-1.57;100.00;100358.41;1707608;83;21000;-60
2023/01/05 05:00:04;;;;;;;3.60;1.70;;;;;;;-1.52;100.00;100349.97;1707210;83;21296;-65
2023/01/05 05:02:32;;;;;;;5.33;2.30;;;;;;;-1.46;100.00;100358.52;1707208;83;20953;-60
2023/01/05 05:05:00;;;;;;;3.60;1.50;;;;;;;-1.38;100.00;100348.58;1708355;83;21516;-60
2023/01/05 05:07:27;;;;;;;4.25;1.90;;;;;;;-1.32;100.00;100355.84;1709129;83;21045;-63
2023/01/05 05:09:55;;;;;;;4.50;2.17;;;;;;;-1.25;100.00;100353.23;1710287;83;21087;-60
2023/01/05 05:12:22;;;;;;;4.28;2.00;;;;;;;-1.19;100.00;100350.70;1709296;83;21250;-62
2023/01/05 05:14:53;;;;;;;5.17;2.40;;;;;;;-1.14;100.00;100344.80;1709849;83;21441;-61
2023/01/05 05:17:20;;;;;;;5.50;2.20;;;;;;;-1.08;100.00;100338.46;1709344;83;21542;-64
2023/01/05 05:19:49;;;;;;;4.60;1.98;;;;;;;-1.02;100.00;100338.05;1709901;83;21429;-59
2023/01/05 05:22:17;;;;;;;4.67;2.35;;;;;;;-0.99;100.00;100339.09;1709876;83;20985;-61
2023/01/05 05:24:44;;;;;;;4.75;2.10;;;;;;;-0.94;100.00;100332.39;1709577;83;21267;-59
2023/01/05 05:27:11;;;;;;;5.70;2.33;;;;;;;-0.91;100.00;100332.16;1709632;83;21417;-61
2023/01/05 05:29:39;;;;;;;4.47;2.00;;;;;;;-0.87;100.00;100329.30;1709884;83;21184;-59
2023/01/05 05:32:06;;;;;;;5.50;2.47;;;;;;;-0.84;100.00;100320.10;1709984;83;21096;-59
2023/01/05 05:34:34;;;;;;;5.05;2.12;;;;;;;-0.82;100.00;100311.87;1709546;83;20981;-63
2023/01/05 05:37:01;;;;;;;5.75;2.50;;;;;;;-0.80;100.00;100313.02;1709904;83;22260;-59
2023/01/05 05:39:30;;;;;;;4.05;2.08;;;;;;;-0.80;100.00;100316.39;1709340;83;21039;-59
2023/01/05 05:41:58;;;;;;;4.65;2.50;;;;;;;-0.80;100.00;100307.44;1709761;83;21529;-60
2023/01/05 05:44:25;;;;;;;5.62;2.17;;;;;;;-0.78;100.00;100304.33;1709755;83;21006;-60
2023/01/05 05:46:52;;;;;;;4.62;2.15;;;;;;;-0.74;100.00;100295.50;1709489;83;21645;-61
2023/01/05 05:49:20;;;;;;;5.37;2.58;;;;;;;-0.68;100.00;100286.58;1709869;83;21235;-61
2023/01/05 05:51:48;;;;;;;5.65;2.37;;;;;;;-0.60;100.00;100284.75;1709598;83;20898;-60
2023/01/05 05:54:16;;;;;;;6.28;2.80;;;;;;;-0.53;100.00;100288.47;1709924;83;21088;-60
2023/01/05 05:56:43;;;;;;;5.55;3.05;;;;;;;-0.48;100.00;100285.60;1709837;83;21073;-60
2023/01/05 05:59:10;;;;;;;7.55;3.75;;;;;;;-0.42;100.00;100280.83;1709439;83;21017;-60
2023/01/05 06:01:39;;;;;;;6.03;3.20;;;;;;;-0.34;100.00;100273.87;1709737;83;21461;-64
2023/01/05 06:04:06;;;;;;;7.28;3.40;;;;;;;-0.30;100.00;100281.70;1709676;83;20989;-60
2023/01/05 06:06:34;;;;;;;6.10;3.25;;;;;;;-0.26;100.00;100276.23;1710244;83;21017;-60
2023/01/05 06:09:02;;;;;;;6.53;3.98;;;;;;;-0.21;100.00;100276.36;1709780;83;21072;-65
2023/01/05 06:11:29;;;;;;;6.78;3.58;;;;;;;-0.20;100.00;100269.83;1709284;83;21045;-61
2023/01/05 06:13:56;;;;;;;7.72;4.30;;;;;;;-0.17;100.00;100274.73;1709739;83;21755;-63
2023/01/05 06:16:23;;;;;;;5.62;3.37;;;;;;;-0.14;100.00;100271.95;1709271;83;21041;-60
2023/01/05 06:18:51;;;;;;;7.08;3.70;;;;;;;-0.10;100.00;100262.30;1709784;83;21017;-61
2023/01/05 06:21:20;;;;;;;6.67;2.98;;;;;;;-0.05;100.00;100262.75;1709539;83;21105;-63
2023/01/05 06:23:47;;;;;;;6.83;3.80;;;;;;;0.02;100.00;100260.09;1709961;83;21059;-59
2023/01/05 06:26:14;;;;;;;7.00;3.22;;;;;;;0.07;100.00;100261.83;1709180;83;21211;-62
2023/01/05 06:28:42;;;;;;;7.50;3.60;;;;;;;0.12;100.00;100253.81;1710024;83;22021;-61
2023/01/05 06:31:09;;;;;;;6.60;3.55;;;;;;;0.17;100.00;100240.98;1710262;83;20989;-63
2023/01/05 06:33:36;;;;;;;6.45;3.77;;;;;;;0.23;100.00;100237.16;1709577;83;21503;-59
2023/01/05 06:36:04;;;;;;;7.15;3.98;;;;;;;0.31;100.00;100237.86;1709791;83;20997;-60
2023/01/05 06:38:31;;;;;;;6.37;3.77;;;;;;;0.43;100.00;100247.16;1709759;83;21613;-60
2023/01/05 06:40:58;;;;;;;7.90;4.10;;;;;;;0.54;100.00;100229.67;1709847;83;21433;-61
2023/01/05 06:43:28;;;;;;;9.70;4.22;;;;;;;0.66;100.00;100237.69;1709348;83;20985;-63
2023/01/05 06:45:55;;;;;;;7.67;4.12;;;;;;;0.76;100.00;100229.63;1709918;83;21071;-63
2023/01/05 06:48:22;;;;;;;7.30;4.35;;;;;;;0.87;100.00;100214.64;1709638;83;21096;-60
2023/01/05 06:50:51;;;;;;;9.13;4.78;;;;;;;0.98;100.00;100213.33;1709895;83;21001;-59
2023/01/05 06:53:18;;;;;;;8.73;4.78;;;;;;;1.08;100.00;100198.83;1709910;83;21072;-63
2023/01/05 06:55:45;;;;;;;9.28;5.08;;;;;;;1.15;100.00;100196.59;1709674;83;21494;-59
2023/01/05 06:58:13;;;;;;;7.03;4.17;;;;;;;1.21;100.00;100190.94;1709336;83;21041;-59
2023/01/05 07:00:40;;;;;;;7.65;4.58;;;;;;;1.29;100.00;100182.61;1709711;83;21099;-59
2023/01/05 07:03:10;;;;;;;7.90;4.85;;;;;;;1.43;100.00;100175.88;1710113;83;21130;-59
2023/01/05 07:05:40;;;;;;;7.63;5.03;;;;;;;1.56;100.00;100169.28;1709342;83;20954;-59
2023/01/05 07:08:07;;;;;;;7.87;4.28;;;;;;;1.62;100.00;100159.29;1709411;83;21033;-61
2023/01/05 07:10:34;;;;;;;7.83;4.97;;;;;;;1.60;100.00;100152.67;1710045;83;21518;-59
2023/01/05 07:13:01;;;;;;;7.87;4.28;;;;;;;1.59;100.00;100144.59;1710019;83;20933;-59
2023/01/05 07:15:29;;;;;;;7.65;4.55;;;;;;;1.54;100.00;100138.56;1709174;83;21089;-59
2023/01/05 07:17:58;;;;;;;7.58;4.40;;;;;;;1.54;100.00;100136.00;1709181;83;20997;-62
2023/01/05 07:20:26;;;;;;;7.65;4.20;;;;;;;1.56;100.00;100132.03;1709613;83;21605;-59
2023/01/05 07:22:53;;;;;;;8.20;4.33;;;;;;;1.56;100.00;100134.12;1709869;83;21101;-58
2023/01/05 07:25:21;;;;;;;7.00;4.40;;;;;;;1.56;100.00;100128.99;1709841;83;21563;-62
2023/01/05 07:27:51;;;;;;;6.40;3.98;;;;;;;1.53;100.00;100118.97;1709928;83;22342;-60
2023/01/05 07:30:18;;;;;;;6.85;4.10;;;;;;;1.50;100.00;100123.07;1709424;83;21429;-61
2023/01/05 07:32:46;;;;;;;7.25;4.40;;;;;;;1.50;100.00;100111.51;1710063;83;20998;-61
2023/01/05 07:35:14;;;;;;;8.80;4.55;;;;;;;1.50;100.00;100117.93;1709252;83;21080;-62
2023/01/05 07:37:43;;;;;;;9.73;4.75;;;;;;;1.53;100.00;100113.83;1709852;83;21018;-60
2023/01/05 07:40:11;;;;;;;8.50;4.60;;;;;;;1.57;100.00;100098.50;1709120;83;21285;-60
2023/01/05 07:42:38;;;;;;;8.95;4.60;;;;;;;1.66;100.00;100096.42;1709832;83;21246;-59
2023/01/05 07:45:07;;;;;;;8.58;4.70;;;;;;;1.83;100.00;100107.86;1710157;83;21009;-59
2023/01/05 07:47:38;;;;;;;11.60;5.95;;;;;;;2.04;100.00;100092.34;1709672;83;20906;-61
2023/01/05 07:50:07;;;;;;;8.83;5.12;;;;;;;2.25;100.00;100086.31;1709291;83;21067;-64
2023/01/05 07:52:34;;;;;;;15.38;7.62;;;;;;;2.40;100.00;100083.69;1709969;83;21179;-60
2023/01/05 07:55:01;;;;;;;12.40;5.83;;;;;;;2.53;100.00;100081.64;1709513;83;20942;-65
2023/01/05 07:57:30;;;;;;;10.90;4.58;;;;;;;2.62;100.00;100079.56;1709361;83;21024;-58
2023/01/05 07:59:57;;;;;;;8.50;4.85;;;;;;;2.64;100.00;100075.08;1709398;83;21022;-59
2023/01/05 08:02:26;;;;;;;7.80;4.62;;;;;;;2.60;100.00;100069.06;1709839;83;22300;-59
2023/01/05 08:04:53;;;;;;;8.88;4.87;;;;;;;2.55;100.00;100075.91;1709875;83;21268;-59
2023/01/05 08:07:20;;;;;;;8.18;4.47;;;;;;;2.51;100.00;100068.13;1709233;83;21001;-59
2023/01/05 08:13:58;;;;;;;9.60;5.00;;;;;;;2.42;100.00;100059.91;1710068;83;21103;-59
2023/01/05 08:15:06;;;;;;;7.62;5.00;;;;;;;2.40;100.00;100058.77;1706255;83;20934;-61
2023/01/05 08:17:34;;;;;;;9.88;4.97;;;;;;;2.41;100.00;100054.44;1710033;83;21468;-63
2023/01/05 08:20:01;;;;;;;8.88;4.17;;;;;;;2.39;100.00;100049.92;1709646;83;20969;-60
2023/01/05 08:22:28;;;;;;;10.18;5.00;;;;;;;2.37;100.00;100041.03;1710245;83;21006;-59
2023/01/05 08:24:55;;;;;;;6.55;3.95;;;;;;;2.39;100.00;100035.30;1709874;83;21467;-61
2023/01/05 08:27:23;;;;;;;12.03;4.83;;;;;;;2.41;100.00;100019.71;1709388;83;21139;-59
2023/01/05 08:29:50;;;;;;;6.78;3.92;;;;;;;2.43;100.00;100010.92;1709240;83;22518;-60
2023/01/05 08:32:19;;;;;;;5.80;3.25;;;;;;;2.47;100.00;100002.93;1710053;83;21449;-59
2023/01/05 08:34:46;;;;;;;7.47;4.00;;;;;;;2.51;100.00;99999.94;1710114;83;21025;-61
2023/01/05 08:37:14;;;;;;;7.50;3.72;;;;;;;2.55;100.00;99996.62;1709337;83;20993;-59
2023/01/05 08:39:41;;;;;;;6.45;3.67;;;;;;;2.60;100.00;99998.30;1709941;83;21519;-62
2023/01/05 08:42:09;;;;;;;7.17;3.90;;;;;;;2.67;100.00;99978.30;1709470;83;22471;-58
2023/01/05 08:44:36;;;;;;;6.92;3.40;;;;;;;2.74;100.00;99981.62;1709988;83;21005;-61
2023/01/05 08:47:05;;;;;;;5.15;2.87;;;;;;;2.78;100.00;99973.95;1709712;83;21033;-59
2023/01/05 08:49:33;;;;;;;5.47;3.10;;;;;;;2.81;100.00;99960.33;1709962;83;21101;-59
2023/01/05 08:52:00;;;;;;;5.65;3.42;;;;;;;2.88;100.00;99955.44;1709705;83;21586;-62
2023/01/05 08:54:28;;;;;;;6.25;3.20;;;;;;;2.96;100.00;99958.13;1710438;83;22371;-59
2023/01/05 08:56:56;;;;;;;5.40;3.20;;;;;;;3.05;100.00;99950.82;1709474;83;21013;-60
2023/01/05 08:59:23;;;;;;;5.62;3.12;;;;;;;3.16;100.00;99946.77;1710046;83;20999;-59
2023/01/05 09:01:50;;;;;;;6.05;3.10;;;;;;;3.27;100.00;99935.95;1710274;83;20982;-60
2023/01/05 09:04:18;;;;;;;5.12;2.90;;;;;;;3.36;100.00;99931.22;1709644;83;21052;-59
2023/01/05 09:06:46;;;;;;;6.15;3.10;;;;;;;3.46;100.00;99921.67;1709282;83;22480;-62
2023/01/05 09:09:14;;;;;;;5.62;3.30;;;;;;;3.52;100.00;99930.58;1709903;83;20988;-59
2023/01/05 09:11:42;;;;;;;7.55;3.12;;;;;;;3.57;100.00;99917.60;1709965;83;20942;-58
2023/01/05 09:14:13;;;;;;;6.87;3.00;;;;;;;3.64;100.00;99907.52;1709454;83;21040;-60
2023/01/05 09:16:40;;;;;;;4.97;2.67;;;;;;;3.72;100.00;99896.48;1709699;83;21473;-61
2023/01/05 09:19:08;;;;;;;4.65;2.72;;;;;;;3.79;100.00;99898.32;1709795;83;21161;-59
2023/01/05 09:21:38;;;;;;;5.25;2.92;;;;;;;3.90;100.00;99889.52;1710195;83;20992;-58
2023/01/05 09:24:06;;;;;;;4.85;2.77;;;;;;;3.96;100.00;99883.78;1709766;83;21496;-62
2023/01/05 09:26:34;;;;;;;6.05;2.75;;;;;;;4.00;100.00;99871.40;1710096;83;21509;-62
2023/01/05 09:29:01;;;;;;;5.30;3.27;;;;;;;4.03;100.00;99869.33;1709688;83;21001;-58
2023/01/05 09:31:30;;;;;;;4.20;2.67;;;;;;;4.07;100.00;99864.20;1709959;83;21172;-59
2023/01/05 09:33:57;;;;;;;6.03;2.75;;;;;;;4.08;100.00;99863.23;1710157;83;20905;-58
2023/01/05 09:36:24;;;;;;;6.15;2.75;;;;;;;4.05;100.00;99844.67;1709770;83;20949;-59
2023/01/05 09:38:54;;;;;;;5.08;2.92;;;;;;;3.99;100.00;99839.64;1709747;83;21527;-61
2023/01/05 09:41:35;;;;;;;5.12;2.90;;;;;;;3.97;100.00;99834.30;1710379;83;21390;-58
2023/01/05 09:44:28;;;;;;;6.25;2.80;;;;;;;3.96;100.00;99833.98;1709354;83;21298;-61
2023/01/05 09:47:16;;;;;;;9.98;3.52;;;;;;;3.93;100.00;99820.09;1709949;83;21056;-59
2023/01/05 09:49:43;;;;;;;5.00;2.52;;;;;;;3.86;100.00;99810.85;1710016;83;21144;-59
2023/01/05 09:52:11;;;;;;;6.70;3.27;;;;;;;3.71;100.00;99805.91;1709786;83;21494;-61
2023/01/05 09:54:39;;;;;;;5.83;3.30;;;;;;;3.56;100.00;99803.05;1707269;83;20943;-60
2023/01/05 09:57:20;;;;;;;6.47;3.92;;;;;;;3.46;100.00;99801.05;1709936;83;21152;-62
2023/01/05 09:59:57;;;;;;;7.05;3.05;;;;;;;3.40;100.00;99791.65;1709170;83;21801;-59
2023/01/05 10:02:58;;;;;;;5.05;2.58;;;;;;;3.36;100.00;99782.59;1709943;83;21339;-59
2023/01/05 10:05:26;;;;;;;6.15;3.37;;;;;;;3.28;100.00;99774.00;1710235;83;21099;-61
2023/01/05 10:08:00;;;;;;;7.33;3.50;;;;;;;3.18;100.00;99767.63;1705549;83;21093;-60
2023/01/05 10:13:01;;;;;;;7.10;3.05;;;;;;;3.12;100.00;99759.22;1704443;84;21901;-62
2023/01/05 10:13:25;;;;;;;5.35;2.90;;;;;;;3.09;100.00;99753.88;1682261;84;21075;-61
2023/01/05 10:15:53;;;;;;;5.15;3.20;;;;;;;3.07;100.00;99751.10;1704590;84;21084;-62
2023/01/05 10:18:26;;;;;;;6.05;3.10;;;;;;;3.05;100.00;99740.96;1704168;84;20970;-60
2023/01/05 10:21:14;;;;;;;7.00;3.45;;;;;;;3.05;100.00;99735.81;1704645;84;21532;-59
2023/01/05 10:24:08;;;;;;;6.20;3.12;;;;;;;3.04;100.00;99721.33;1703493;83;21115;-63
2023/01/05 10:27:13;;;;;;;4.67;2.50;;;;;;;3.05;100.00;99698.95;1704717;84;20923;-62
2023/01/05 10:29:45;;;;;;;5.60;3.27;;;;;;;3.06;100.00;99710.87;1704738;84;20970;-59
2023/01/05 10:32:26;;;;;;;6.20;3.00;;;;;;;3.07;100.00;99701.72;1704448;84;21064;-60
2023/01/05 10:35:01;;;;;;;6.42;3.70;;;;;;;3.08;100.00;99709.77;1703845;84;21841;-59
2023/01/05 10:38:01;;;;;;;7.50;3.65;;;;;;;3.10;100.00;99710.42;1704349;83;21028;-59
2023/01/05 10:41:05;;;;;;;8.23;4.10;;;;;;;3.09;100.00;99688.20;1703382;84;21475;-60
2023/01/05 10:43:55;;;;;;;7.20;3.47;;;;;;;3.09;100.00;99678.39;1704196;84;21072;-63
2023/01/05 10:46:22;;;;;;;5.42;2.92;;;;;;;3.08;100.00;99671.15;1704564;84;20974;-59
2023/01/05 10:48:51;;;;;;;5.40;2.75;;;;;;;3.09;100.00;99667.61;1704476;84;21006;-61
2023/01/05 10:51:19;;;;;;;10.10;3.80;;;;;;;3.09;100.00;99654.73;1703935;84;22201;-61
2023/01/05 10:53:47;;;;;;;5.83;3.00;;;;;;;3.09;100.00;99648.30;1703952;84;41387;-60
2023/01/05 10:56:20;;;;;;;4.50;2.42;;;;;;;3.07;100.00;99633.48;1704483;84;21024;-59
2023/01/05 10:58:47;;;;;;;5.28;3.20;;;;;;;3.06;100.00;99624.12;1704107;83;21056;-62
2023/01/05 11:01:26;;;;;;;5.75;2.92;;;;;;;3.07;100.00;99623.19;1704470;84;21061;-60
2023/01/05 11:04:07;;;;;;;4.53;2.60;;;;;;;3.07;100.00;99612.05;1704645;84;21239;-59
2023/01/05 11:06:36;;;;;;;4.15;2.58;;;;;;;3.06;100.00;99613.83;1704267;84;21002;-60
2023/01/05 11:09:17;;;;;;;5.90;2.70;;;;;;;3.04;100.00;99608.03;1703911;84;21047;-59
2023/01/05 11:11:58;;;;;;;6.90;3.17;;;;;;;3.04;100.00;99618.81;1705139;84;20994;-60
2023/01/05 11:14:27;;;;;;;4.65;2.47;;;;;;;3.00;100.00;99604.15;1703869;82;21045;-61
2023/01/05 11:16:56;;;;;;;5.58;3.17;;;;;;;2.95;100.00;99608.92;1704711;84;21540;-59
2023/01/05 11:19:31;;;;;;;8.15;3.80;;;;;;;2.92;100.00;99598.95;1704669;83;20966;-59
2023/01/05 11:21:58;;;;;;;6.12;3.02;;;;;;;2.85;100.00;99594.06;1704887;83;20989;-59
2023/01/05 11:24:30;;;;;;;6.40;3.20;;;;;;;2.82;100.00;99593.06;1704033;84;20954;-61
2023/01/05 11:27:04;;;;;;;7.12;3.37;;;;;;;2.77;100.00;99587.09;1705604;84;21525;-60
2023/01/05 11:29:31;;;;;;;6.20;3.62;;;;;;;2.73;100.00;99583.65;1705034;84;21243;-61
2023/01/05 11:32:05;;;;;;;5.22;3.00;;;;;;;2.67;100.00;99583.78;1705078;84;21468;-64
2023/01/05 11:34:42;;;;;;;8.53;3.20;;;;;;;2.61;100.00;99574.06;1704217;84;21425;-60
2023/01/05 11:37:26;;;;;;;5.75;3.17;;;;;;;2.54;100.00;99567.89;1704667;84;21020;-60
2023/01/05 11:40:00;;;;;;;6.70;3.20;;;;;;;2.46;100.00;99562.20;1703121;84;21017;-63
2023/01/05 11:42:31;;;;;;;7.40;3.55;;;;;;;2.39;100.00;99547.06;1704808;84;21218;-59
2023/01/05 11:45:19;;;;;;;5.40;3.50;;;;;;;2.35;100.00;99545.70;1704651;83;20922;-60
2023/01/05 11:47:51;;;;;;;5.92;3.17;;;;;;;2.28;100.00;99535.70;1680145;84;21519;-61
2023/01/05 11:50:26;;;;;;;5.95;3.12;;;;;;;2.19;100.00;99525.32;1704491;84;21079;-60
2023/01/05 11:52:55;;;;;;;6.65;3.22;;;;;;;2.18;100.00;99510.05;1704552;84;21091;-62
2023/01/05 11:55:36;;;;;;;8.30;3.02;;;;;;;2.13;100.00;99510.50;1704672;84;21156;-60
2023/01/05 11:58:20;;;;;;;5.70;3.67;;;;;;;2.11;100.00;99498.25;1704976;84;21526;-60
2023/01/05 12:01:17;;;;;;;7.25;3.00;;;;;;;2.08;100.00;99494.69;1704164;83;20957;-60
2023/01/05 12:04:05;;;;;;;6.78;4.03;;;;;;;2.06;100.00;99485.53;1705112;84;21006;-60
2023/01/05 12:07:01;;;;;;;7.30;3.47;;;;;;;2.00;100.00;99469.39;1704371;84;21892;-65
2023/01/05 12:09:42;;;;;;;6.90;3.47;;;;;;;1.99;100.00;99468.59;1717692;83;21563;-61
2023/01/05 12:12:49;;;;;;;9.23;4.17;;;;;;;1.94;100.00;99460.52;1717535;83;21036;-60
2023/01/05 12:15:49;;;;;;;6.70;4.05;;;;;;;1.91;100.00;99460.33;1717268;83;20933;-64
2023/01/05 12:18:49;;;;;;;7.55;4.55;;;;;;;1.87;100.00;99458.20;1717706;83;21504;-61
2023/01/05 12:21:24;;;;;;;7.67;4.53;;;;;;;1.84;100.00;99447.73;1718355;83;21000;-61